East Enterprise, Indiana
Current Conditions -  °F | °C
As of 2:52 AM on Saturday 29 Nov 2014 (Local Time) from KCVG Reporting Station
Overcast Overcast  
Wind Chill: 28°   Ceiling: 18000
Heat Index: 35°   Visibility: 10mi
Dew Point: 19°   Wind: 9mph
Humidity: 52%   Direction: 180°S
Pressure: 30.07"   Gusts: NA
Location:  38.87°N, 84.99°W
Report Text: KCVG 290752Z 18008KT 10SM OVC180 02/M07 A3007 RMK AO2 SLP186 T00171072
Loading
Personal Weather Stations






























Interactive Weather Map New forecast layout! Learn more

10-Day Weather Forecast

Advertisements
Track Severe Weather on mobile